sensor_id;sensor_type;location;lat;lon;timestamp;P1;durP1;ratioP1;P2;durP2;ratioP2
9322;SDS011;4700;48.822;9.270;2022-07-23T00:01:36;6.60;;;6.00;;
9322;SDS011;4700;48.822;9.270;2022-07-23T00:04:21;6.53;;;6.03;;
9322;SDS011;4700;48.822;9.270;2022-07-23T00:07:07;6.97;;;6.37;;
9322;SDS011;4700;48.822;9.270;2022-07-23T00:09:54;6.57;;;6.07;;
9322;SDS011;4700;48.822;9.270;2022-07-23T00:12:40;6.90;;;6.20;;
9322;SDS011;4700;48.822;9.270;2022-07-23T00:15:26;6.27;;;5.77;;
9322;SDS011;4700;48.822;9.270;2022-07-23T00:18:12;6.93;;;6.33;;
9322;SDS011;4700;48.822;9.270;2022-07-23T00:20:57;6.83;;;6.30;;
9322;SDS011;4700;48.822;9.270;2022-07-23T00:23:43;6.50;;;5.90;;
9322;SDS011;4700;48.822;9.270;2022-07-23T00:26:30;6.30;;;5.90;;
9322;SDS011;4700;48.822;9.270;2022-07-23T00:29:16;6.57;;;6.00;;
9322;SDS011;4700;48.822;9.270;2022-07-23T00:32:08;5.70;;;5.30;;
9322;SDS011;4700;48.822;9.270;2022-07-23T00:34:53;6.57;;;6.07;;
9322;SDS011;4700;48.822;9.270;2022-07-23T00:37:39;6.07;;;5.57;;
9322;SDS011;4700;48.822;9.270;2022-07-23T00:40:25;5.67;;;5.17;;
9322;SDS011;4700;48.822;9.270;2022-07-23T00:43:13;5.97;;;5.23;;
9322;SDS011;4700;48.822;9.270;2022-07-23T00:45:59;6.00;;;5.50;;
9322;SDS011;4700;48.822;9.270;2022-07-23T00:48:45;5.90;;;5.50;;
9322;SDS011;4700;48.822;9.270;2022-07-23T00:51:30;5.50;;;5.00;;
9322;SDS011;4700;48.822;9.270;2022-07-23T00:54:16;4.70;;;4.40;;
9322;SDS011;4700;48.822;9.270;2022-07-23T00:57:03;5.77;;;5.37;;
9322;SDS011;4700;48.822;9.270;2022-07-23T00:59:50;5.30;;;4.80;;
9322;SDS011;4700;48.822;9.270;2022-07-23T01:02:36;4.97;;;4.63;;
9322;SDS011;4700;48.822;9.270;2022-07-23T01:05:22;5.80;;;5.40;;
9322;SDS011;4700;48.822;9.270;2022-07-23T01:08:08;5.87;;;5.37;;
9322;SDS011;4700;48.822;9.270;2022-07-23T01:10:53;5.30;;;4.90;;
9322;SDS011;4700;48.822;9.270;2022-07-23T01:13:41;6.10;;;5.60;;
9322;SDS011;4700;48.822;9.270;2022-07-23T01:16:29;5.60;;;5.20;;
9322;SDS011;4700;48.822;9.270;2022-07-23T01:19:15;5.20;;;4.90;;
9322;SDS011;4700;48.822;9.270;2022-07-23T01:22:02;6.00;;;5.60;;
9322;SDS011;4700;48.822;9.270;2022-07-23T01:24:50;5.57;;;5.17;;
9322;SDS011;4700;48.822;9.270;2022-07-23T01:27:36;5.27;;;4.90;;
9322;SDS011;4700;48.822;9.270;2022-07-23T01:30:22;5.03;;;4.53;;
9322;SDS011;4700;48.822;9.270;2022-07-23T01:33:08;5.67;;;5.27;;
9322;SDS011;4700;48.822;9.270;2022-07-23T01:35:54;5.40;;;5.00;;
9322;SDS011;4700;48.822;9.270;2022-07-23T01:38:39;5.80;;;5.40;;
9322;SDS011;4700;48.822;9.270;2022-07-23T01:41:26;5.77;;;5.30;;
9322;SDS011;4700;48.822;9.270;2022-07-23T01:44:12;5.20;;;4.83;;
9322;SDS011;4700;48.822;9.270;2022-07-23T01:46:58;4.63;;;4.33;;
9322;SDS011;4700;48.822;9.270;2022-07-23T01:49:44;5.30;;;4.90;;
9322;SDS011;4700;48.822;9.270;2022-07-23T01:52:30;5.20;;;4.63;;
9322;SDS011;4700;48.822;9.270;2022-07-23T01:55:15;5.20;;;4.80;;
9322;SDS011;4700;48.822;9.270;2022-07-23T01:58:02;5.70;;;5.20;;
9322;SDS011;4700;48.822;9.270;2022-07-23T02:00:49;5.03;;;4.73;;
9322;SDS011;4700;48.822;9.270;2022-07-23T02:03:34;5.40;;;5.00;;
9322;SDS011;4700;48.822;9.270;2022-07-23T02:06:20;5.90;;;5.50;;
9322;SDS011;4700;48.822;9.270;2022-07-23T02:09:06;5.20;;;4.70;;
9322;SDS011;4700;48.822;9.270;2022-07-23T02:11:51;5.83;;;5.43;;
9322;SDS011;4700;48.822;9.270;2022-07-23T02:14:38;5.13;;;4.70;;
9322;SDS011;4700;48.822;9.270;2022-07-23T02:17:24;5.30;;;4.90;;
9322;SDS011;4700;48.822;9.270;2022-07-23T02:20:10;5.07;;;4.77;;
9322;SDS011;4700;48.822;9.270;2022-07-23T02:22:58;6.10;;;5.23;;
9322;SDS011;4700;48.822;9.270;2022-07-23T02:25:43;6.20;;;5.70;;
9322;SDS011;4700;48.822;9.270;2022-07-23T02:28:29;5.20;;;4.87;;
9322;SDS011;4700;48.822;9.270;2022-07-23T02:31:16;6.10;;;5.50;;
9322;SDS011;4700;48.822;9.270;2022-07-23T02:34:02;5.37;;;5.00;;
9322;SDS011;4700;48.822;9.270;2022-07-23T02:36:50;5.70;;;5.20;;
9322;SDS011;4700;48.822;9.270;2022-07-23T02:39:36;6.10;;;4.90;;
9322;SDS011;4700;48.822;9.270;2022-07-23T02:42:22;5.77;;;5.37;;
9322;SDS011;4700;48.822;9.270;2022-07-23T02:45:08;5.77;;;5.37;;
9322;SDS011;4700;48.822;9.270;2022-07-23T02:47:45;5.30;;;4.90;;
9322;SDS011;4700;48.822;9.270;2022-07-23T02:50:31;4.80;;;4.50;;
9322;SDS011;4700;48.822;9.270;2022-07-23T02:53:17;5.70;;;5.30;;
9322;SDS011;4700;48.822;9.270;2022-07-23T02:56:03;5.93;;;5.43;;
9322;SDS011;4700;48.822;9.270;2022-07-23T02:58:48;5.60;;;5.20;;
9322;SDS011;4700;48.822;9.270;2022-07-23T03:01:34;5.87;;;5.40;;
9322;SDS011;4700;48.822;9.270;2022-07-23T03:04:22;5.03;;;4.73;;
9322;SDS011;4700;48.822;9.270;2022-07-23T03:07:07;5.73;;;5.30;;
9322;SDS011;4700;48.822;9.270;2022-07-23T03:09:53;5.57;;;5.00;;
9322;SDS011;4700;48.822;9.270;2022-07-23T03:12:39;5.73;;;5.33;;
9322;SDS011;4700;48.822;9.270;2022-07-23T03:15:25;5.90;;;5.50;;
9322;SDS011;4700;48.822;9.270;2022-07-23T03:18:11;5.50;;;5.10;;
9322;SDS011;4700;48.822;9.270;2022-07-23T03:20:57;5.80;;;5.40;;
9322;SDS011;4700;48.822;9.270;2022-07-23T03:23:44;4.73;;;4.43;;
9322;SDS011;4700;48.822;9.270;2022-07-23T03:26:29;6.13;;;5.70;;
9322;SDS011;4700;48.822;9.270;2022-07-23T03:29:15;6.03;;;5.40;;
9322;SDS011;4700;48.822;9.270;2022-07-23T03:32:01;5.70;;;5.30;;
9322;SDS011;4700;48.822;9.270;2022-07-23T03:34:46;5.47;;;5.07;;
9322;SDS011;4700;48.822;9.270;2022-07-23T03:37:34;5.97;;;5.43;;
9322;SDS011;4700;48.822;9.270;2022-07-23T03:40:19;5.80;;;5.40;;
9322;SDS011;4700;48.822;9.270;2022-07-23T03:43:05;5.93;;;5.43;;
9322;SDS011;4700;48.822;9.270;2022-07-23T03:45:51;6.00;;;5.60;;
9322;SDS011;4700;48.822;9.270;2022-07-23T03:48:39;7.40;;;6.67;;
9322;SDS011;4700;48.822;9.270;2022-07-23T03:51:25;6.83;;;6.33;;
9322;SDS011;4700;48.822;9.270;2022-07-23T03:54:12;6.47;;;5.97;;
9322;SDS011;4700;48.822;9.270;2022-07-23T03:56:59;6.20;;;5.60;;
9322;SDS011;4700;48.822;9.270;2022-07-23T03:59:44;9.07;;;6.23;;
9322;SDS011;4700;48.822;9.270;2022-07-23T04:02:30;6.27;;;5.87;;
9322;SDS011;4700;48.822;9.270;2022-07-23T04:05:16;6.93;;;6.37;;
9322;SDS011;4700;48.822;9.270;2022-07-23T04:08:01;7.03;;;6.00;;
9322;SDS011;4700;48.822;9.270;2022-07-23T04:10:49;6.20;;;5.70;;
9322;SDS011;4700;48.822;9.270;2022-07-23T04:13:34;6.20;;;5.70;;
9322;SDS011;4700;48.822;9.270;2022-07-23T04:16:20;5.47;;;5.07;;
9322;SDS011;4700;48.822;9.270;2022-07-23T04:19:05;6.50;;;6.00;;
9322;SDS011;4700;48.822;9.270;2022-07-23T04:21:51;6.53;;;6.10;;
9322;SDS011;4700;48.822;9.270;2022-07-23T04:24:37;6.40;;;5.90;;
9322;SDS011;4700;48.822;9.270;2022-07-23T04:27:24;6.50;;;6.00;;
9322;SDS011;4700;48.822;9.270;2022-07-23T04:30:10;6.13;;;5.73;;
9322;SDS011;4700;48.822;9.270;2022-07-23T04:32:56;5.80;;;5.40;;
9322;SDS011;4700;48.822;9.270;2022-07-23T04:35:41;6.53;;;6.03;;
9322;SDS011;4700;48.822;9.270;2022-07-23T04:38:27;6.67;;;6.27;;
9322;SDS011;4700;48.822;9.270;2022-07-23T04:41:12;6.80;;;6.30;;
9322;SDS011;4700;48.822;9.270;2022-07-23T04:43:59;6.07;;;5.67;;
9322;SDS011;4700;48.822;9.270;2022-07-23T04:46:45;6.80;;;6.13;;
9322;SDS011;4700;48.822;9.270;2022-07-23T04:49:31;5.70;;;5.20;;
9322;SDS011;4700;48.822;9.270;2022-07-23T04:52:16;6.77;;;6.37;;
9322;SDS011;4700;48.822;9.270;2022-07-23T04:55:02;6.17;;;5.67;;
9322;SDS011;4700;48.822;9.270;2022-07-23T04:57:48;6.37;;;5.77;;
9322;SDS011;4700;48.822;9.270;2022-07-23T05:00:35;6.63;;;6.13;;
9322;SDS011;4700;48.822;9.270;2022-07-23T05:03:21;6.07;;;5.67;;
9322;SDS011;4700;48.822;9.270;2022-07-23T05:06:07;6.60;;;6.10;;
9322;SDS011;4700;48.822;9.270;2022-07-23T05:08:53;5.70;;;5.23;;
9322;SDS011;4700;48.822;9.270;2022-07-23T05:11:39;5.83;;;5.33;;
9322;SDS011;4700;48.822;9.270;2022-07-23T05:14:24;5.90;;;5.40;;
9322;SDS011;4700;48.822;9.270;2022-07-23T05:17:13;5.93;;;5.53;;
9322;SDS011;4700;48.822;9.270;2022-07-23T05:19:58;5.90;;;5.50;;
9322;SDS011;4700;48.822;9.270;2022-07-23T05:22:45;6.40;;;5.90;;
9322;SDS011;4700;48.822;9.270;2022-07-23T05:25:30;6.77;;;6.37;;
9322;SDS011;4700;48.822;9.270;2022-07-23T05:28:16;6.30;;;5.80;;
9322;SDS011;4700;48.822;9.270;2022-07-23T05:31:04;6.73;;;6.23;;
9322;SDS011;4700;48.822;9.270;2022-07-23T05:33:51;6.53;;;6.03;;
9322;SDS011;4700;48.822;9.270;2022-07-23T05:36:37;6.60;;;6.10;;
9322;SDS011;4700;48.822;9.270;2022-07-23T05:39:23;7.50;;;6.80;;
9322;SDS011;4700;48.822;9.270;2022-07-23T05:42:09;7.37;;;6.63;;
9322;SDS011;4700;48.822;9.270;2022-07-23T05:44:55;7.13;;;6.63;;
9322;SDS011;4700;48.822;9.270;2022-07-23T05:47:41;6.60;;;6.10;;
9322;SDS011;4700;48.822;9.270;2022-07-23T05:50:29;7.57;;;6.67;;
9322;SDS011;4700;48.822;9.270;2022-07-23T05:53:15;6.13;;;5.53;;
9322;SDS011;4700;48.822;9.270;2022-07-23T05:56:01;6.73;;;6.23;;
9322;SDS011;4700;48.822;9.270;2022-07-23T05:58:47;6.77;;;6.20;;
9322;SDS011;4700;48.822;9.270;2022-07-23T06:01:34;7.47;;;6.70;;
9322;SDS011;4700;48.822;9.270;2022-07-23T06:04:19;7.10;;;6.40;;
9322;SDS011;4700;48.822;9.270;2022-07-23T06:07:07;7.70;;;7.00;;
9322;SDS011;4700;48.822;9.270;2022-07-23T06:09:53;7.60;;;6.90;;
9322;SDS011;4700;48.822;9.270;2022-07-23T06:12:38;7.27;;;6.77;;
9322;SDS011;4700;48.822;9.270;2022-07-23T06:15:24;7.27;;;6.70;;
9322;SDS011;4700;48.822;9.270;2022-07-23T06:18:10;8.37;;;7.67;;
9322;SDS011;4700;48.822;9.270;2022-07-23T06:20:56;8.13;;;6.33;;
9322;SDS011;4700;48.822;9.270;2022-07-23T06:23:44;6.77;;;6.30;;
9322;SDS011;4700;48.822;9.270;2022-07-23T06:26:29;6.87;;;6.37;;
9322;SDS011;4700;48.822;9.270;2022-07-23T06:29:15;6.17;;;5.63;;
9322;SDS011;4700;48.822;9.270;2022-07-23T06:32:01;6.20;;;5.70;;
9322;SDS011;4700;48.822;9.270;2022-07-23T06:34:47;7.10;;;6.47;;
9322;SDS011;4700;48.822;9.270;2022-07-23T06:37:33;6.30;;;5.30;;
9322;SDS011;4700;48.822;9.270;2022-07-23T06:40:20;7.33;;;6.83;;
9322;SDS011;4700;48.822;9.270;2022-07-23T06:43:06;6.97;;;6.47;;
9322;SDS011;4700;48.822;9.270;2022-07-23T06:45:52;5.80;;;5.40;;
9322;SDS011;4700;48.822;9.270;2022-07-23T06:48:28;10.83;;;6.20;;
9322;SDS011;4700;48.822;9.270;2022-07-23T06:51:14;7.30;;;6.70;;
9322;SDS011;4700;48.822;9.270;2022-07-23T06:54:00;7.50;;;6.90;;
9322;SDS011;4700;48.822;9.270;2022-07-23T06:56:47;7.50;;;6.90;;
9322;SDS011;4700;48.822;9.270;2022-07-23T06:59:33;7.63;;;6.90;;
9322;SDS011;4700;48.822;9.270;2022-07-23T07:02:20;7.70;;;7.10;;
9322;SDS011;4700;48.822;9.270;2022-07-23T07:05:06;7.53;;;6.90;;
9322;SDS011;4700;48.822;9.270;2022-07-23T07:07:53;7.40;;;6.70;;
9322;SDS011;4700;48.822;9.270;2022-07-23T07:10:38;7.47;;;6.73;;
9322;SDS011;4700;48.822;9.270;2022-07-23T07:13:25;7.87;;;7.07;;
9322;SDS011;4700;48.822;9.270;2022-07-23T07:16:11;12.57;;;11.53;;
9322;SDS011;4700;48.822;9.270;2022-07-23T07:18:57;9.03;;;8.00;;
9322;SDS011;4700;48.822;9.270;2022-07-23T07:21:43;7.97;;;7.20;;
9322;SDS011;4700;48.822;9.270;2022-07-23T07:24:31;7.90;;;7.30;;
9322;SDS011;4700;48.822;9.270;2022-07-23T07:27:22;7.00;;;6.50;;
9322;SDS011;4700;48.822;9.270;2022-07-23T07:30:10;7.77;;;7.13;;
9322;SDS011;4700;48.822;9.270;2022-07-23T07:32:56;8.07;;;7.37;;
9322;SDS011;4700;48.822;9.270;2022-07-23T07:35:42;7.50;;;6.93;;
9322;SDS011;4700;48.822;9.270;2022-07-23T07:38:27;7.53;;;6.93;;
9322;SDS011;4700;48.822;9.270;2022-07-23T07:41:12;7.47;;;6.87;;
9322;SDS011;4700;48.822;9.270;2022-07-23T07:43:59;7.83;;;7.13;;
9322;SDS011;4700;48.822;9.270;2022-07-23T07:46:46;7.77;;;7.27;;
9322;SDS011;4700;48.822;9.270;2022-07-23T07:49:32;7.60;;;7.10;;
9322;SDS011;4700;48.822;9.270;2022-07-23T07:52:20;7.87;;;7.33;;
9322;SDS011;4700;48.822;9.270;2022-07-23T07:55:07;8.67;;;7.97;;
9322;SDS011;4700;48.822;9.270;2022-07-23T07:57:53;8.17;;;7.40;;
9322;SDS011;4700;48.822;9.270;2022-07-23T08:00:39;7.53;;;6.83;;
9322;SDS011;4700;48.822;9.270;2022-07-23T08:03:26;7.13;;;6.63;;
9322;SDS011;4700;48.822;9.270;2022-07-23T08:06:12;8.13;;;7.50;;
9322;SDS011;4700;48.822;9.270;2022-07-23T08:08:58;8.60;;;7.80;;
9322;SDS011;4700;48.822;9.270;2022-07-23T08:11:43;8.20;;;7.60;;
9322;SDS011;4700;48.822;9.270;2022-07-23T08:14:29;7.33;;;6.53;;
9322;SDS011;4700;48.822;9.270;2022-07-23T08:17:19;7.40;;;6.80;;
9322;SDS011;4700;48.822;9.270;2022-07-23T08:20:07;7.93;;;7.23;;
9322;SDS011;4700;48.822;9.270;2022-07-23T08:22:54;7.20;;;6.70;;
9322;SDS011;4700;48.822;9.270;2022-07-23T08:25:41;7.27;;;6.57;;
9322;SDS011;4700;48.822;9.270;2022-07-23T08:28:27;6.60;;;6.10;;
9322;SDS011;4700;48.822;9.270;2022-07-23T08:31:16;6.70;;;6.03;;
9322;SDS011;4700;48.822;9.270;2022-07-23T08:34:02;16.37;;;10.90;;
9322;SDS011;4700;48.822;9.270;2022-07-23T08:36:50;30.80;;;13.90;;
9322;SDS011;4700;48.822;9.270;2022-07-23T08:39:35;8.17;;;7.40;;
9322;SDS011;4700;48.822;9.270;2022-07-23T08:42:21;9.80;;;8.90;;
9322;SDS011;4700;48.822;9.270;2022-07-23T08:45:07;7.20;;;6.70;;
9322;SDS011;4700;48.822;9.270;2022-07-23T08:47:54;8.53;;;7.83;;
9322;SDS011;4700;48.822;9.270;2022-07-23T08:50:42;8.50;;;7.67;;
9322;SDS011;4700;48.822;9.270;2022-07-23T08:53:30;7.40;;;6.90;;
9322;SDS011;4700;48.822;9.270;2022-07-23T08:56:17;8.73;;;7.70;;
9322;SDS011;4700;48.822;9.270;2022-07-23T08:59:03;6.53;;;6.13;;
9322;SDS011;4700;48.822;9.270;2022-07-23T09:01:48;8.27;;;7.50;;
9322;SDS011;4700;48.822;9.270;2022-07-23T09:04:35;12.23;;;10.93;;
9322;SDS011;4700;48.822;9.270;2022-07-23T09:07:21;7.27;;;6.77;;
9322;SDS011;4700;48.822;9.270;2022-07-23T09:10:09;8.33;;;7.83;;
9322;SDS011;4700;48.822;9.270;2022-07-23T09:12:56;8.20;;;7.70;;
9322;SDS011;4700;48.822;9.270;2022-07-23T09:15:47;9.00;;;7.47;;
9322;SDS011;4700;48.822;9.270;2022-07-23T09:18:38;18.70;;;10.37;;
9322;SDS011;4700;48.822;9.270;2022-07-23T09:21:27;7.40;;;6.83;;
9322;SDS011;4700;48.822;9.270;2022-07-23T09:24:15;7.80;;;7.20;;
9322;SDS011;4700;48.822;9.270;2022-07-23T09:27:04;8.97;;;7.23;;
9322;SDS011;4700;48.822;9.270;2022-07-23T09:29:55;7.70;;;7.20;;
9322;SDS011;4700;48.822;9.270;2022-07-23T09:32:41;7.17;;;6.60;;
9322;SDS011;4700;48.822;9.270;2022-07-23T09:35:33;7.20;;;6.70;;
9322;SDS011;4700;48.822;9.270;2022-07-23T09:38:29;7.60;;;7.10;;
9322;SDS011;4700;48.822;9.270;2022-07-23T09:41:14;6.47;;;6.07;;
9322;SDS011;4700;48.822;9.270;2022-07-23T09:44:05;7.10;;;6.67;;
9322;SDS011;4700;48.822;9.270;2022-07-23T09:46:57;6.57;;;6.07;;
9322;SDS011;4700;48.822;9.270;2022-07-23T09:49:57;7.60;;;7.20;;
9322;SDS011;4700;48.822;9.270;2022-07-23T09:52:45;8.03;;;6.90;;
9322;SDS011;4700;48.822;9.270;2022-07-23T09:55:32;6.13;;;5.70;;
9322;SDS011;4700;48.822;9.270;2022-07-23T09:58:21;6.80;;;6.10;;
9322;SDS011;4700;48.822;9.270;2022-07-23T10:01:11;6.60;;;6.20;;
9322;SDS011;4700;48.822;9.270;2022-07-23T10:03:58;6.60;;;6.17;;
9322;SDS011;4700;48.822;9.270;2022-07-23T10:06:45;7.20;;;6.80;;
9322;SDS011;4700;48.822;9.270;2022-07-23T10:09:32;7.10;;;6.60;;
9322;SDS011;4700;48.822;9.270;2022-07-23T10:12:19;7.80;;;7.30;;
9322;SDS011;4700;48.822;9.270;2022-07-23T10:15:13;9.63;;;8.93;;
9322;SDS011;4700;48.822;9.270;2022-07-23T10:18:00;7.53;;;7.03;;
9322;SDS011;4700;48.822;9.270;2022-07-23T10:20:46;6.70;;;6.20;;
9322;SDS011;4700;48.822;9.270;2022-07-23T10:23:33;6.93;;;6.53;;
9322;SDS011;4700;48.822;9.270;2022-07-23T10:26:27;6.40;;;5.90;;
9322;SDS011;4700;48.822;9.270;2022-07-23T10:29:21;6.37;;;5.87;;
9322;SDS011;4700;48.822;9.270;2022-07-23T10:32:22;6.57;;;6.07;;
9322;SDS011;4700;48.822;9.270;2022-07-23T10:35:22;6.07;;;5.67;;
9322;SDS011;4700;48.822;9.270;2022-07-23T10:38:17;6.43;;;5.90;;
9322;SDS011;4700;48.822;9.270;2022-07-23T10:41:06;6.57;;;6.07;;
9322;SDS011;4700;48.822;9.270;2022-07-23T10:44:05;6.20;;;5.80;;
9322;SDS011;4700;48.822;9.270;2022-07-23T10:49:26;6.73;;;6.33;;
9322;SDS011;4700;48.822;9.270;2022-07-23T10:52:24;5.70;;;5.40;;
9322;SDS011;4700;48.822;9.270;2022-07-23T11:01:37;6.77;;;6.37;;
9322;SDS011;4700;48.822;9.270;2022-07-23T11:07:34;6.73;;;6.23;;
9322;SDS011;4700;48.822;9.270;2022-07-23T11:10:31;7.07;;;6.57;;
9322;SDS011;4700;48.822;9.270;2022-07-23T11:13:37;7.00;;;6.57;;
9322;SDS011;4700;48.822;9.270;2022-07-23T11:16:24;7.47;;;6.97;;
9322;SDS011;4700;48.822;9.270;2022-07-23T11:19:10;6.93;;;6.33;;
9322;SDS011;4700;48.822;9.270;2022-07-23T11:21:56;8.10;;;7.50;;
9322;SDS011;4700;48.822;9.270;2022-07-23T11:24:51;6.97;;;6.53;;
9322;SDS011;4700;48.822;9.270;2022-07-23T11:27:37;7.03;;;6.53;;
9322;SDS011;4700;48.822;9.270;2022-07-23T11:30:39;7.03;;;6.53;;
9322;SDS011;4700;48.822;9.270;2022-07-23T11:33:26;7.30;;;6.77;;
9322;SDS011;4700;48.822;9.270;2022-07-23T11:36:12;6.00;;;5.50;;
9322;SDS011;4700;48.822;9.270;2022-07-23T11:38:58;6.90;;;6.40;;
9322;SDS011;4700;48.822;9.270;2022-07-23T11:41:46;6.77;;;6.37;;
9322;SDS011;4700;48.822;9.270;2022-07-23T11:44:33;6.27;;;5.87;;
9322;SDS011;4700;48.822;9.270;2022-07-23T11:47:21;7.17;;;6.67;;
9322;SDS011;4700;48.822;9.270;2022-07-23T11:50:08;7.03;;;6.63;;
9322;SDS011;4700;48.822;9.270;2022-07-23T11:52:54;7.13;;;6.50;;
9322;SDS011;4700;48.822;9.270;2022-07-23T11:55:40;7.47;;;6.97;;
9322;SDS011;4700;48.822;9.270;2022-07-23T11:58:27;6.20;;;5.80;;
9322;SDS011;4700;48.822;9.270;2022-07-23T12:01:12;6.57;;;6.13;;
9322;SDS011;4700;48.822;9.270;2022-07-23T12:03:58;7.43;;;6.20;;
9322;SDS011;4700;48.822;9.270;2022-07-23T12:06:44;6.77;;;6.27;;
9322;SDS011;4700;48.822;9.270;2022-07-23T12:09:30;6.50;;;6.10;;
9322;SDS011;4700;48.822;9.270;2022-07-23T12:12:16;7.07;;;6.57;;
9322;SDS011;4700;48.822;9.270;2022-07-23T12:15:06;6.80;;;6.30;;
9322;SDS011;4700;48.822;9.270;2022-07-23T12:17:53;7.10;;;6.50;;
9322;SDS011;4700;48.822;9.270;2022-07-23T12:20:42;7.17;;;6.57;;
9322;SDS011;4700;48.822;9.270;2022-07-23T12:23:29;6.93;;;6.53;;
9322;SDS011;4700;48.822;9.270;2022-07-23T12:26:15;7.50;;;7.00;;
9322;SDS011;4700;48.822;9.270;2022-07-23T12:29:00;7.37;;;6.80;;
9322;SDS011;4700;48.822;9.270;2022-07-23T12:31:47;7.80;;;7.30;;
9322;SDS011;4700;48.822;9.270;2022-07-23T12:34:33;7.73;;;7.13;;
9322;SDS011;4700;48.822;9.270;2022-07-23T12:37:26;7.43;;;6.93;;
9322;SDS011;4700;48.822;9.270;2022-07-23T12:40:20;7.20;;;6.70;;
9322;SDS011;4700;48.822;9.270;2022-07-23T12:43:08;6.70;;;6.17;;
9322;SDS011;4700;48.822;9.270;2022-07-23T12:45:57;7.80;;;7.30;;
9322;SDS011;4700;48.822;9.270;2022-07-23T12:48:51;7.30;;;6.70;;
9322;SDS011;4700;48.822;9.270;2022-07-23T12:51:39;7.40;;;6.80;;
9322;SDS011;4700;48.822;9.270;2022-07-23T12:54:27;7.67;;;7.10;;
9322;SDS011;4700;48.822;9.270;2022-07-23T12:57:13;6.97;;;6.50;;
9322;SDS011;4700;48.822;9.270;2022-07-23T13:00:07;6.87;;;6.47;;
9322;SDS011;4700;48.822;9.270;2022-07-23T13:02:53;7.20;;;6.70;;
9322;SDS011;4700;48.822;9.270;2022-07-23T13:05:40;7.30;;;6.80;;
9322;SDS011;4700;48.822;9.270;2022-07-23T13:08:27;8.23;;;7.67;;
9322;SDS011;4700;48.822;9.270;2022-07-23T13:11:13;8.13;;;7.63;;
9322;SDS011;4700;48.822;9.270;2022-07-23T13:13:59;7.50;;;7.00;;
9322;SDS011;4700;48.822;9.270;2022-07-23T13:16:45;7.50;;;7.00;;
9322;SDS011;4700;48.822;9.270;2022-07-23T13:19:31;6.83;;;6.33;;
9322;SDS011;4700;48.822;9.270;2022-07-23T13:22:18;7.47;;;6.97;;
9322;SDS011;4700;48.822;9.270;2022-07-23T13:25:04;8.77;;;8.07;;
9322;SDS011;4700;48.822;9.270;2022-07-23T13:27:51;8.53;;;7.80;;
9322;SDS011;4700;48.822;9.270;2022-07-23T13:30:38;8.37;;;7.67;;
9322;SDS011;4700;48.822;9.270;2022-07-23T13:33:25;9.37;;;8.57;;
9322;SDS011;4700;48.822;9.270;2022-07-23T13:36:11;8.63;;;7.93;;
9322;SDS011;4700;48.822;9.270;2022-07-23T13:38:58;7.53;;;7.10;;
9322;SDS011;4700;48.822;9.270;2022-07-23T13:41:43;8.33;;;7.73;;
9322;SDS011;4700;48.822;9.270;2022-07-23T13:44:29;7.73;;;7.13;;
9322;SDS011;4700;48.822;9.270;2022-07-23T13:47:15;8.57;;;7.40;;
9322;SDS011;4700;48.822;9.270;2022-07-23T13:49:50;8.30;;;7.80;;
9322;SDS011;4700;48.822;9.270;2022-07-23T13:52:39;8.23;;;7.73;;
9322;SDS011;4700;48.822;9.270;2022-07-23T13:55:27;8.40;;;7.80;;
9322;SDS011;4700;48.822;9.270;2022-07-23T13:58:13;8.90;;;8.30;;
9322;SDS011;4700;48.822;9.270;2022-07-23T14:00:58;9.77;;;8.77;;
9322;SDS011;4700;48.822;9.270;2022-07-23T14:03:44;9.60;;;8.90;;
9322;SDS011;4700;48.822;9.270;2022-07-23T14:06:30;9.17;;;8.33;;
9322;SDS011;4700;48.822;9.270;2022-07-23T14:09:16;9.57;;;8.87;;
9322;SDS011;4700;48.822;9.270;2022-07-23T14:12:03;9.37;;;8.50;;
9322;SDS011;4700;48.822;9.270;2022-07-23T14:14:49;8.67;;;8.07;;
9322;SDS011;4700;48.822;9.270;2022-07-23T14:17:35;8.90;;;8.30;;
9322;SDS011;4700;48.822;9.270;2022-07-23T14:20:22;8.40;;;7.80;;
9322;SDS011;4700;48.822;9.270;2022-07-23T14:23:08;9.30;;;8.60;;
9322;SDS011;4700;48.822;9.270;2022-07-23T14:25:54;9.40;;;8.70;;
9322;SDS011;4700;48.822;9.270;2022-07-23T14:28:41;10.33;;;8.53;;
9322;SDS011;4700;48.822;9.270;2022-07-23T14:31:27;9.87;;;8.97;;
9322;SDS011;4700;48.822;9.270;2022-07-23T14:34:12;8.87;;;8.27;;
9322;SDS011;4700;48.822;9.270;2022-07-23T14:36:58;8.93;;;8.33;;
9322;SDS011;4700;48.822;9.270;2022-07-23T14:39:44;8.47;;;7.87;;
9322;SDS011;4700;48.822;9.270;2022-07-23T14:42:31;8.97;;;8.27;;
9322;SDS011;4700;48.822;9.270;2022-07-23T14:45:18;9.00;;;8.30;;
9322;SDS011;4700;48.822;9.270;2022-07-23T14:48:03;7.60;;;7.10;;
9322;SDS011;4700;48.822;9.270;2022-07-23T14:50:49;9.37;;;8.77;;
9322;SDS011;4700;48.822;9.270;2022-07-23T14:53:35;9.07;;;8.40;;
9322;SDS011;4700;48.822;9.270;2022-07-23T14:56:21;9.17;;;8.47;;
9322;SDS011;4700;48.822;9.270;2022-07-23T14:59:07;8.40;;;7.90;;
9322;SDS011;4700;48.822;9.270;2022-07-23T15:01:54;8.50;;;7.63;;
9322;SDS011;4700;48.822;9.270;2022-07-23T15:04:40;9.10;;;8.20;;
9322;SDS011;4700;48.822;9.270;2022-07-23T15:07:25;7.63;;;7.13;;
9322;SDS011;4700;48.822;9.270;2022-07-23T15:10:11;8.70;;;8.10;;
9322;SDS011;4700;48.822;9.270;2022-07-23T15:12:58;8.40;;;7.70;;
9322;SDS011;4700;48.822;9.270;2022-07-23T15:15:43;8.40;;;7.90;;
9322;SDS011;4700;48.822;9.270;2022-07-23T15:18:30;8.47;;;7.87;;
9322;SDS011;4700;48.822;9.270;2022-07-23T15:21:16;8.80;;;8.20;;
9322;SDS011;4700;48.822;9.270;2022-07-23T15:24:01;8.90;;;8.30;;
9322;SDS011;4700;48.822;9.270;2022-07-23T15:26:47;8.43;;;7.83;;
9322;SDS011;4700;48.822;9.270;2022-07-23T15:29:33;8.20;;;7.60;;
9322;SDS011;4700;48.822;9.270;2022-07-23T15:32:19;9.20;;;8.50;;
9322;SDS011;4700;48.822;9.270;2022-07-23T15:35:06;9.30;;;8.50;;
9322;SDS011;4700;48.822;9.270;2022-07-23T15:37:52;8.93;;;8.23;;
9322;SDS011;4700;48.822;9.270;2022-07-23T15:40:38;9.67;;;8.97;;
9322;SDS011;4700;48.822;9.270;2022-07-23T15:43:24;9.23;;;8.40;;
9322;SDS011;4700;48.822;9.270;2022-07-23T15:46:10;9.57;;;8.77;;
9322;SDS011;4700;48.822;9.270;2022-07-23T15:48:55;7.13;;;6.63;;
9322;SDS011;4700;48.822;9.270;2022-07-23T15:51:42;7.30;;;6.70;;
9322;SDS011;4700;48.822;9.270;2022-07-23T15:54:28;8.30;;;7.60;;
9322;SDS011;4700;48.822;9.270;2022-07-23T15:57:13;7.30;;;6.90;;
9322;SDS011;4700;48.822;9.270;2022-07-23T15:59:59;8.03;;;7.33;;
9322;SDS011;4700;48.822;9.270;2022-07-23T16:02:47;7.90;;;7.23;;
9322;SDS011;4700;48.822;9.270;2022-07-23T16:05:35;8.70;;;8.10;;
9322;SDS011;4700;48.822;9.270;2022-07-23T16:08:23;8.43;;;7.83;;
9322;SDS011;4700;48.822;9.270;2022-07-23T16:11:10;8.93;;;8.30;;
9322;SDS011;4700;48.822;9.270;2022-07-23T16:13:56;8.57;;;7.97;;
9322;SDS011;4700;48.822;9.270;2022-07-23T16:16:41;8.30;;;7.70;;
9322;SDS011;4700;48.822;9.270;2022-07-23T16:19:28;9.13;;;8.27;;
9322;SDS011;4700;48.822;9.270;2022-07-23T16:22:15;8.60;;;8.10;;
9322;SDS011;4700;48.822;9.270;2022-07-23T16:25:03;8.53;;;8.03;;
9322;SDS011;4700;48.822;9.270;2022-07-23T16:27:49;9.20;;;8.50;;
9322;SDS011;4700;48.822;9.270;2022-07-23T16:30:34;9.13;;;8.33;;
9322;SDS011;4700;48.822;9.270;2022-07-23T16:33:20;9.40;;;8.47;;
9322;SDS011;4700;48.822;9.270;2022-07-23T16:36:06;8.93;;;8.23;;
9322;SDS011;4700;48.822;9.270;2022-07-23T16:38:52;10.17;;;9.20;;
9322;SDS011;4700;48.822;9.270;2022-07-23T16:41:39;9.40;;;8.80;;
9322;SDS011;4700;48.822;9.270;2022-07-23T16:44:25;8.50;;;8.00;;
9322;SDS011;4700;48.822;9.270;2022-07-23T16:47:11;10.93;;;10.07;;
9322;SDS011;4700;48.822;9.270;2022-07-23T16:49:57;10.50;;;9.80;;
9322;SDS011;4700;48.822;9.270;2022-07-23T16:52:43;10.37;;;9.47;;
9322;SDS011;4700;48.822;9.270;2022-07-23T16:55:28;11.50;;;10.37;;
9322;SDS011;4700;48.822;9.270;2022-07-23T16:58:16;11.47;;;10.57;;
9322;SDS011;4700;48.822;9.270;2022-07-23T17:01:02;9.17;;;8.57;;
9322;SDS011;4700;48.822;9.270;2022-07-23T17:03:48;10.33;;;9.70;;
9322;SDS011;4700;48.822;9.270;2022-07-23T17:06:33;11.67;;;10.57;;
9322;SDS011;4700;48.822;9.270;2022-07-23T17:09:22;10.60;;;9.80;;
9322;SDS011;4700;48.822;9.270;2022-07-23T17:12:08;13.27;;;11.07;;
9322;SDS011;4700;48.822;9.270;2022-07-23T17:14:55;9.93;;;9.23;;
9322;SDS011;4700;48.822;9.270;2022-07-23T17:17:41;9.87;;;9.27;;
9322;SDS011;4700;48.822;9.270;2022-07-23T17:20:26;10.60;;;9.80;;
9322;SDS011;4700;48.822;9.270;2022-07-23T17:23:12;11.63;;;10.93;;
9322;SDS011;4700;48.822;9.270;2022-07-23T17:25:58;11.47;;;10.43;;
9322;SDS011;4700;48.822;9.270;2022-07-23T17:28:43;11.77;;;10.83;;